sensor_id;sensor_type;location;lat;lon;timestamp;P1;durP1;ratioP1;P2;durP2;ratioP2
7753;SDS011;3921;42.266;23.122;2022-10-31T00:00:51;21.20;;;9.60;;
7753;SDS011;3921;42.266;23.122;2022-10-31T00:03:18;15.37;;;8.07;;
7753;SDS011;3921;42.266;23.122;2022-10-31T00:05:46;12.77;;;7.43;;
7753;SDS011;3921;42.266;23.122;2022-10-31T00:08:14;12.87;;;7.20;;
7753;SDS011;3921;42.266;23.122;2022-10-31T00:10:42;10.97;;;6.37;;
7753;SDS011;3921;42.266;23.122;2022-10-31T00:13:11;9.90;;;5.80;;
7753;SDS011;3921;42.266;23.122;2022-10-31T00:15:39;11.30;;;6.53;;
7753;SDS011;3921;42.266;23.122;2022-10-31T00:18:08;13.47;;;6.13;;
7753;SDS011;3921;42.266;23.122;2022-10-31T00:20:36;9.17;;;5.83;;
7753;SDS011;3921;42.266;23.122;2022-10-31T00:23:03;11.63;;;5.90;;
7753;SDS011;3921;42.266;23.122;2022-10-31T00:25:34;12.17;;;5.83;;
7753;SDS011;3921;42.266;23.122;2022-10-31T00:28:03;9.97;;;6.03;;
7753;SDS011;3921;42.266;23.122;2022-10-31T00:30:32;7.70;;;5.47;;
7753;SDS011;3921;42.266;23.122;2022-10-31T00:33:00;7.80;;;5.27;;
7753;SDS011;3921;42.266;23.122;2022-10-31T00:35:30;10.00;;;5.90;;
7753;SDS011;3921;42.266;23.122;2022-10-31T00:37:58;8.17;;;5.53;;
7753;SDS011;3921;42.266;23.122;2022-10-31T00:40:25;11.00;;;5.77;;
7753;SDS011;3921;42.266;23.122;2022-10-31T00:42:53;11.83;;;5.87;;
7753;SDS011;3921;42.266;23.122;2022-10-31T00:45:22;12.83;;;5.70;;
7753;SDS011;3921;42.266;23.122;2022-10-31T00:47:49;8.90;;;5.87;;
7753;SDS011;3921;42.266;23.122;2022-10-31T00:50:16;11.80;;;6.37;;
7753;SDS011;3921;42.266;23.122;2022-10-31T00:52:45;13.10;;;6.33;;
7753;SDS011;3921;42.266;23.122;2022-10-31T00:55:12;15.27;;;7.40;;
7753;SDS011;3921;42.266;23.122;2022-10-31T00:57:39;11.83;;;6.90;;
7753;SDS011;3921;42.266;23.122;2022-10-31T01:00:09;13.37;;;6.80;;
7753;SDS011;3921;42.266;23.122;2022-10-31T01:02:41;12.83;;;7.03;;
7753;SDS011;3921;42.266;23.122;2022-10-31T01:05:08;16.07;;;8.30;;
7753;SDS011;3921;42.266;23.122;2022-10-31T01:07:39;11.97;;;7.70;;
7753;SDS011;3921;42.266;23.122;2022-10-31T01:10:08;10.27;;;6.93;;
7753;SDS011;3921;42.266;23.122;2022-10-31T01:12:38;11.53;;;7.03;;
7753;SDS011;3921;42.266;23.122;2022-10-31T01:15:06;20.33;;;8.00;;
7753;SDS011;3921;42.266;23.122;2022-10-31T01:17:36;13.83;;;7.97;;
7753;SDS011;3921;42.266;23.122;2022-10-31T01:20:04;18.03;;;7.90;;
7753;SDS011;3921;42.266;23.122;2022-10-31T01:22:33;15.67;;;7.93;;
7753;SDS011;3921;42.266;23.122;2022-10-31T01:25:00;11.70;;;6.73;;
7753;SDS011;3921;42.266;23.122;2022-10-31T01:27:31;13.73;;;7.50;;
7753;SDS011;3921;42.266;23.122;2022-10-31T01:29:58;12.93;;;7.67;;
7753;SDS011;3921;42.266;23.122;2022-10-31T01:32:26;15.43;;;7.47;;
7753;SDS011;3921;42.266;23.122;2022-10-31T01:34:55;13.87;;;6.73;;
7753;SDS011;3921;42.266;23.122;2022-10-31T01:37:23;16.23;;;7.23;;
7753;SDS011;3921;42.266;23.122;2022-10-31T01:39:50;15.20;;;7.73;;
7753;SDS011;3921;42.266;23.122;2022-10-31T01:42:19;14.43;;;6.57;;
7753;SDS011;3921;42.266;23.122;2022-10-31T01:44:51;15.77;;;7.67;;
7753;SDS011;3921;42.266;23.122;2022-10-31T01:47:23;17.10;;;7.33;;
7753;SDS011;3921;42.266;23.122;2022-10-31T01:49:57;12.63;;;7.00;;
7753;SDS011;3921;42.266;23.122;2022-10-31T01:52:27;12.10;;;6.93;;
7753;SDS011;3921;42.266;23.122;2022-10-31T01:54:58;13.30;;;7.20;;
7753;SDS011;3921;42.266;23.122;2022-10-31T01:57:30;13.80;;;7.90;;
7753;SDS011;3921;42.266;23.122;2022-10-31T02:00:02;16.00;;;7.80;;
7753;SDS011;3921;42.266;23.122;2022-10-31T02:02:32;12.60;;;6.90;;
7753;SDS011;3921;42.266;23.122;2022-10-31T02:04:59;15.77;;;7.77;;
7753;SDS011;3921;42.266;23.122;2022-10-31T02:07:30;14.83;;;7.43;;
7753;SDS011;3921;42.266;23.122;2022-10-31T02:10:02;12.13;;;7.03;;
7753;SDS011;3921;42.266;23.122;2022-10-31T02:12:41;12.77;;;7.47;;
7753;SDS011;3921;42.266;23.122;2022-10-31T02:15:11;16.17;;;7.87;;
7753;SDS011;3921;42.266;23.122;2022-10-31T02:17:39;12.70;;;6.63;;
7753;SDS011;3921;42.266;23.122;2022-10-31T02:20:12;14.27;;;7.10;;
7753;SDS011;3921;42.266;23.122;2022-10-31T02:26:01;11.73;;;6.67;;
7753;SDS011;3921;42.266;23.122;2022-10-31T02:28:47;9.90;;;6.37;;
7753;SDS011;3921;42.266;23.122;2022-10-31T02:31:32;15.10;;;6.43;;
7753;SDS011;3921;42.266;23.122;2022-10-31T02:34:07;10.93;;;6.10;;
7753;SDS011;3921;42.266;23.122;2022-10-31T02:36:52;14.13;;;6.60;;
7753;SDS011;3921;42.266;23.122;2022-10-31T02:39:23;11.97;;;6.27;;
7753;SDS011;3921;42.266;23.122;2022-10-31T02:41:58;9.47;;;5.63;;
7753;SDS011;3921;42.266;23.122;2022-10-31T02:44:36;8.93;;;5.03;;
7753;SDS011;3921;42.266;23.122;2022-10-31T02:47:12;8.40;;;5.50;;
7753;SDS011;3921;42.266;23.122;2022-10-31T02:49:43;9.70;;;5.53;;
7753;SDS011;3921;42.266;23.122;2022-10-31T02:52:18;9.50;;;6.43;;
7753;SDS011;3921;42.266;23.122;2022-10-31T02:54:46;11.33;;;6.03;;
7753;SDS011;3921;42.266;23.122;2022-10-31T02:57:15;10.97;;;5.93;;
7753;SDS011;3921;42.266;23.122;2022-10-31T02:59:47;11.97;;;6.33;;
7753;SDS011;3921;42.266;23.122;2022-10-31T03:02:20;12.97;;;6.33;;
7753;SDS011;3921;42.266;23.122;2022-10-31T03:05:11;10.60;;;5.90;;
7753;SDS011;3921;42.266;23.122;2022-10-31T03:07:51;9.37;;;5.80;;
7753;SDS011;3921;42.266;23.122;2022-10-31T03:10:27;9.30;;;6.00;;
7753;SDS011;3921;42.266;23.122;2022-10-31T03:13:06;9.37;;;5.30;;
7753;SDS011;3921;42.266;23.122;2022-10-31T03:15:37;10.87;;;6.17;;
7753;SDS011;3921;42.266;23.122;2022-10-31T03:18:12;11.17;;;5.30;;
7753;SDS011;3921;42.266;23.122;2022-10-31T03:20:44;9.27;;;5.97;;
7753;SDS011;3921;42.266;23.122;2022-10-31T03:23:16;8.63;;;5.97;;
7753;SDS011;3921;42.266;23.122;2022-10-31T03:25:46;9.67;;;6.00;;
7753;SDS011;3921;42.266;23.122;2022-10-31T03:28:14;12.83;;;6.20;;
7753;SDS011;3921;42.266;23.122;2022-10-31T03:30:47;8.67;;;5.83;;
7753;SDS011;3921;42.266;23.122;2022-10-31T03:33:20;10.70;;;6.50;;
7753;SDS011;3921;42.266;23.122;2022-10-31T03:35:52;11.13;;;5.97;;
7753;SDS011;3921;42.266;23.122;2022-10-31T03:38:21;10.43;;;5.67;;
7753;SDS011;3921;42.266;23.122;2022-10-31T03:40:49;9.87;;;5.23;;
7753;SDS011;3921;42.266;23.122;2022-10-31T03:43:19;9.13;;;4.60;;
7753;SDS011;3921;42.266;23.122;2022-10-31T03:45:51;8.50;;;5.03;;
7753;SDS011;3921;42.266;23.122;2022-10-31T03:48:20;8.43;;;5.07;;
7753;SDS011;3921;42.266;23.122;2022-10-31T03:50:49;9.93;;;5.37;;
7753;SDS011;3921;42.266;23.122;2022-10-31T03:53:24;10.40;;;5.17;;
7753;SDS011;3921;42.266;23.122;2022-10-31T03:55:57;5.93;;;5.17;;
7753;SDS011;3921;42.266;23.122;2022-10-31T03:58:29;8.73;;;4.90;;
7753;SDS011;3921;42.266;23.122;2022-10-31T04:01:04;8.53;;;5.10;;
7753;SDS011;3921;42.266;23.122;2022-10-31T04:03:38;8.70;;;5.40;;
7753;SDS011;3921;42.266;23.122;2022-10-31T04:06:07;8.47;;;4.83;;
7753;SDS011;3921;42.266;23.122;2022-10-31T04:08:38;8.33;;;4.83;;
7753;SDS011;3921;42.266;23.122;2022-10-31T04:11:07;8.37;;;4.77;;
7753;SDS011;3921;42.266;23.122;2022-10-31T04:13:36;8.03;;;4.43;;
7753;SDS011;3921;42.266;23.122;2022-10-31T04:16:07;10.20;;;4.77;;
7753;SDS011;3921;42.266;23.122;2022-10-31T04:18:35;7.07;;;4.90;;
7753;SDS011;3921;42.266;23.122;2022-10-31T04:21:04;10.13;;;4.83;;
7753;SDS011;3921;42.266;23.122;2022-10-31T04:23:33;7.43;;;4.77;;
7753;SDS011;3921;42.266;23.122;2022-10-31T04:26:01;13.67;;;5.70;;
7753;SDS011;3921;42.266;23.122;2022-10-31T04:28:28;8.03;;;5.00;;
7753;SDS011;3921;42.266;23.122;2022-10-31T04:30:56;8.83;;;5.90;;
7753;SDS011;3921;42.266;23.122;2022-10-31T04:33:23;11.97;;;5.53;;
7753;SDS011;3921;42.266;23.122;2022-10-31T04:35:50;10.90;;;7.20;;
7753;SDS011;3921;42.266;23.122;2022-10-31T04:38:19;22.13;;;15.17;;
7753;SDS011;3921;42.266;23.122;2022-10-31T04:40:46;17.13;;;9.90;;
7753;SDS011;3921;42.266;23.122;2022-10-31T04:43:15;12.93;;;9.17;;
7753;SDS011;3921;42.266;23.122;2022-10-31T04:45:44;8.97;;;5.83;;
7753;SDS011;3921;42.266;23.122;2022-10-31T04:48:11;8.70;;;5.20;;
7753;SDS011;3921;42.266;23.122;2022-10-31T04:50:38;6.97;;;4.77;;
7753;SDS011;3921;42.266;23.122;2022-10-31T04:53:08;6.70;;;4.57;;
7753;SDS011;3921;42.266;23.122;2022-10-31T04:58:20;10.27;;;4.40;;
7753;SDS011;3921;42.266;23.122;2022-10-31T05:00:47;6.43;;;3.80;;
7753;SDS011;3921;42.266;23.122;2022-10-31T05:03:22;6.57;;;4.67;;
7753;SDS011;3921;42.266;23.122;2022-10-31T05:06:13;8.57;;;4.47;;
7753;SDS011;3921;42.266;23.122;2022-10-31T05:08:59;8.23;;;4.33;;
7753;SDS011;3921;42.266;23.122;2022-10-31T05:11:39;7.17;;;4.57;;
7753;SDS011;3921;42.266;23.122;2022-10-31T05:14:10;6.00;;;4.40;;
7753;SDS011;3921;42.266;23.122;2022-10-31T05:17:23;9.60;;;4.37;;
7753;SDS011;3921;42.266;23.122;2022-10-31T05:19:50;8.80;;;4.40;;
7753;SDS011;3921;42.266;23.122;2022-10-31T05:22:17;9.10;;;4.60;;
7753;SDS011;3921;42.266;23.122;2022-10-31T05:24:46;6.03;;;4.00;;
7753;SDS011;3921;42.266;23.122;2022-10-31T05:27:14;5.47;;;4.30;;
7753;SDS011;3921;42.266;23.122;2022-10-31T05:29:41;7.53;;;4.80;;
7753;SDS011;3921;42.266;23.122;2022-10-31T05:32:08;8.17;;;4.40;;
7753;SDS011;3921;42.266;23.122;2022-10-31T05:34:35;5.23;;;3.63;;
7753;SDS011;3921;42.266;23.122;2022-10-31T05:37:11;6.33;;;3.67;;
7753;SDS011;3921;42.266;23.122;2022-10-31T05:39:38;8.27;;;3.90;;
7753;SDS011;3921;42.266;23.122;2022-10-31T05:44:44;64.53;;;41.60;;
7753;SDS011;3921;42.266;23.122;2022-10-31T05:47:11;8.63;;;5.33;;
7753;SDS011;3921;42.266;23.122;2022-10-31T05:49:38;7.17;;;3.87;;
7753;SDS011;3921;42.266;23.122;2022-10-31T05:52:05;6.53;;;4.07;;
7753;SDS011;3921;42.266;23.122;2022-10-31T05:54:33;9.80;;;4.27;;
7753;SDS011;3921;42.266;23.122;2022-10-31T05:57:00;8.10;;;4.60;;
7753;SDS011;3921;42.266;23.122;2022-10-31T05:59:27;5.00;;;3.90;;
7753;SDS011;3921;42.266;23.122;2022-10-31T06:01:56;6.83;;;4.50;;
7753;SDS011;3921;42.266;23.122;2022-10-31T06:04:26;8.23;;;4.30;;
7753;SDS011;3921;42.266;23.122;2022-10-31T06:06:56;5.63;;;3.77;;
7753;SDS011;3921;42.266;23.122;2022-10-31T06:09:24;7.67;;;4.53;;
7753;SDS011;3921;42.266;23.122;2022-10-31T06:11:51;7.70;;;4.83;;
7753;SDS011;3921;42.266;23.122;2022-10-31T06:14:18;6.87;;;4.30;;
7753;SDS011;3921;42.266;23.122;2022-10-31T06:16:45;8.63;;;5.17;;
7753;SDS011;3921;42.266;23.122;2022-10-31T06:34:58;8.07;;;4.27;;
7753;SDS011;3921;42.266;23.122;2022-10-31T06:37:32;5.43;;;3.90;;
7753;SDS011;3921;42.266;23.122;2022-10-31T06:40:14;7.73;;;4.03;;
7753;SDS011;3921;42.266;23.122;2022-10-31T06:42:43;9.77;;;4.50;;
7753;SDS011;3921;42.266;23.122;2022-10-31T06:45:29;11.33;;;5.00;;
7753;SDS011;3921;42.266;23.122;2022-10-31T06:47:58;8.33;;;4.40;;
7753;SDS011;3921;42.266;23.122;2022-10-31T06:50:25;6.50;;;4.53;;
7753;SDS011;3921;42.266;23.122;2022-10-31T06:52:53;8.90;;;5.57;;
7753;SDS011;3921;42.266;23.122;2022-10-31T06:55:22;11.40;;;5.80;;
7753;SDS011;3921;42.266;23.122;2022-10-31T06:57:50;11.47;;;5.83;;
7753;SDS011;3921;42.266;23.122;2022-10-31T07:00:18;10.27;;;6.00;;
7753;SDS011;3921;42.266;23.122;2022-10-31T07:03:00;13.57;;;5.87;;
7753;SDS011;3921;42.266;23.122;2022-10-31T07:05:29;13.07;;;6.27;;
7753;SDS011;3921;42.266;23.122;2022-10-31T07:07:57;9.87;;;4.73;;
7753;SDS011;3921;42.266;23.122;2022-10-31T07:10:26;8.13;;;4.83;;
7753;SDS011;3921;42.266;23.122;2022-10-31T07:12:59;8.70;;;5.17;;
7753;SDS011;3921;42.266;23.122;2022-10-31T07:15:33;13.70;;;5.23;;
7753;SDS011;3921;42.266;23.122;2022-10-31T07:18:12;14.03;;;6.00;;
7753;SDS011;3921;42.266;23.122;2022-10-31T07:20:40;9.13;;;5.70;;
7753;SDS011;3921;42.266;23.122;2022-10-31T07:23:08;8.20;;;5.70;;
7753;SDS011;3921;42.266;23.122;2022-10-31T07:25:37;12.40;;;6.67;;
7753;SDS011;3921;42.266;23.122;2022-10-31T07:28:05;13.43;;;6.50;;
7753;SDS011;3921;42.266;23.122;2022-10-31T07:30:33;10.27;;;6.13;;
7753;SDS011;3921;42.266;23.122;2022-10-31T07:33:00;11.10;;;6.20;;
7753;SDS011;3921;42.266;23.122;2022-10-31T07:35:31;9.03;;;6.00;;
7753;SDS011;3921;42.266;23.122;2022-10-31T07:38:06;9.43;;;6.27;;
7753;SDS011;3921;42.266;23.122;2022-10-31T07:40:37;12.27;;;6.47;;
7753;SDS011;3921;42.266;23.122;2022-10-31T07:43:05;8.37;;;5.83;;
7753;SDS011;3921;42.266;23.122;2022-10-31T07:45:32;11.03;;;5.20;;
7753;SDS011;3921;42.266;23.122;2022-10-31T07:48:00;7.70;;;5.33;;
7753;SDS011;3921;42.266;23.122;2022-10-31T07:50:30;8.43;;;4.80;;
7753;SDS011;3921;42.266;23.122;2022-10-31T07:53:00;7.83;;;5.30;;
7753;SDS011;3921;42.266;23.122;2022-10-31T07:55:35;10.77;;;5.70;;
7753;SDS011;3921;42.266;23.122;2022-10-31T07:58:16;8.10;;;5.60;;
7753;SDS011;3921;42.266;23.122;2022-10-31T08:00:45;10.93;;;5.60;;
7753;SDS011;3921;42.266;23.122;2022-10-31T08:03:21;7.97;;;5.27;;
7753;SDS011;3921;42.266;23.122;2022-10-31T08:05:50;10.20;;;5.60;;
7753;SDS011;3921;42.266;23.122;2022-10-31T08:08:23;6.93;;;4.70;;
7753;SDS011;3921;42.266;23.122;2022-10-31T08:10:54;10.30;;;5.23;;
7753;SDS011;3921;42.266;23.122;2022-10-31T08:13:24;9.47;;;5.50;;
7753;SDS011;3921;42.266;23.122;2022-10-31T08:16:15;5.80;;;4.73;;
7753;SDS011;3921;42.266;23.122;2022-10-31T08:18:44;9.27;;;5.83;;
7753;SDS011;3921;42.266;23.122;2022-10-31T08:21:27;7.77;;;4.47;;
7753;SDS011;3921;42.266;23.122;2022-10-31T08:23:54;9.23;;;5.03;;
7753;SDS011;3921;42.266;23.122;2022-10-31T08:26:26;8.63;;;4.57;;
7753;SDS011;3921;42.266;23.122;2022-10-31T08:28:56;6.93;;;4.57;;
7753;SDS011;3921;42.266;23.122;2022-10-31T08:31:26;11.13;;;5.50;;
7753;SDS011;3921;42.266;23.122;2022-10-31T08:33:54;16.23;;;5.23;;
7753;SDS011;3921;42.266;23.122;2022-10-31T08:39:47;9.50;;;5.20;;
7753;SDS011;3921;42.266;23.122;2022-10-31T08:42:45;9.37;;;5.17;;
7753;SDS011;3921;42.266;23.122;2022-10-31T08:45:19;6.40;;;4.80;;
7753;SDS011;3921;42.266;23.122;2022-10-31T08:47:56;6.27;;;4.60;;
7753;SDS011;3921;42.266;23.122;2022-10-31T08:50:27;8.10;;;4.73;;
7753;SDS011;3921;42.266;23.122;2022-10-31T08:53:05;12.87;;;4.70;;
7753;SDS011;3921;42.266;23.122;2022-10-31T09:09:22;10.07;;;5.07;;
7753;SDS011;3921;42.266;23.122;2022-10-31T09:12:17;7.83;;;4.20;;
7753;SDS011;3921;42.266;23.122;2022-10-31T09:15:00;10.97;;;4.67;;
7753;SDS011;3921;42.266;23.122;2022-10-31T09:21:38;7.70;;;4.17;;
7753;SDS011;3921;42.266;23.122;2022-10-31T10:01:45;5.53;;;3.97;;
7753;SDS011;3921;42.266;23.122;2022-10-31T10:04:54;5.87;;;3.63;;
7753;SDS011;3921;42.266;23.122;2022-10-31T10:14:14;9.20;;;4.43;;
7753;SDS011;3921;42.266;23.122;2022-10-31T10:37:55;7.07;;;3.70;;
7753;SDS011;3921;42.266;23.122;2022-10-31T10:39:08;7.17;;;3.20;;
7753;SDS011;3921;42.266;23.122;2022-10-31T10:41:55;11.20;;;3.27;;
7753;SDS011;3921;42.266;23.122;2022-10-31T10:45:13;5.37;;;3.20;;
7753;SDS011;3921;42.266;23.122;2022-10-31T10:54:57;5.20;;;3.50;;
7753;SDS011;3921;42.266;23.122;2022-10-31T10:57:39;7.07;;;4.03;;
7753;SDS011;3921;42.266;23.122;2022-10-31T11:04:24;9.00;;;3.30;;
7753;SDS011;3921;42.266;23.122;2022-10-31T11:10:11;9.20;;;3.27;;
7753;SDS011;3921;42.266;23.122;2022-10-31T11:15:26;6.40;;;2.90;;
7753;SDS011;3921;42.266;23.122;2022-10-31T11:18:25;6.17;;;3.40;;
7753;SDS011;3921;42.266;23.122;2022-10-31T11:23:51;13.93;;;3.93;;
7753;SDS011;3921;42.266;23.122;2022-10-31T11:36:13;116.03;;;10.57;;
7753;SDS011;3921;42.266;23.122;2022-10-31T11:39:31;20.70;;;4.27;;
7753;SDS011;3921;42.266;23.122;2022-10-31T11:42:24;6.03;;;2.20;;
7753;SDS011;3921;42.266;23.122;2022-10-31T11:45:29;9.43;;;2.67;;
7753;SDS011;3921;42.266;23.122;2022-10-31T12:02:21;6.23;;;2.40;;
7753;SDS011;3921;42.266;23.122;2022-10-31T12:07:40;7.20;;;2.47;;
7753;SDS011;3921;42.266;23.122;2022-10-31T13:43:50;5.33;;;2.50;;
7753;SDS011;3921;42.266;23.122;2022-10-31T13:50:25;3.73;;;2.57;;
7753;SDS011;3921;42.266;23.122;2022-10-31T14:16:26;7.93;;;2.70;;
7753;SDS011;3921;42.266;23.122;2022-10-31T14:36:17;10.53;;;2.67;;
7753;SDS011;3921;42.266;23.122;2022-10-31T16:11:32;17.40;;;8.93;;
7753;SDS011;3921;42.266;23.122;2022-10-31T16:14:03;16.87;;;10.00;;
7753;SDS011;3921;42.266;23.122;2022-10-31T16:16:34;20.27;;;12.10;;
7753;SDS011;3921;42.266;23.122;2022-10-31T16:19:12;15.30;;;10.37;;
7753;SDS011;3921;42.266;23.122;2022-10-31T16:22:03;23.57;;;12.10;;
7753;SDS011;3921;42.266;23.122;2022-10-31T16:24:34;23.90;;;13.07;;
7753;SDS011;3921;42.266;23.122;2022-10-31T16:38:43;62.57;;;29.83;;
7753;SDS011;3921;42.266;23.122;2022-10-31T16:41:10;143.27;;;57.07;;
7753;SDS011;3921;42.266;23.122;2022-10-31T16:43:38;80.00;;;35.97;;
7753;SDS011;3921;42.266;23.122;2022-10-31T16:46:09;127.43;;;63.20;;
7753;SDS011;3921;42.266;23.122;2022-10-31T16:48:47;99.57;;;50.00;;
7753;SDS011;3921;42.266;23.122;2022-10-31T16:51:28;53.33;;;28.43;;
7753;SDS011;3921;42.266;23.122;2022-10-31T16:54:19;35.47;;;20.47;;
7753;SDS011;3921;42.266;23.122;2022-10-31T16:57:13;39.50;;;21.13;;
7753;SDS011;3921;42.266;23.122;2022-10-31T17:00:08;45.77;;;22.10;;
7753;SDS011;3921;42.266;23.122;2022-10-31T17:03:07;63.50;;;29.97;;
7753;SDS011;3921;42.266;23.122;2022-10-31T17:05:56;61.93;;;27.17;;
7753;SDS011;3921;42.266;23.122;2022-10-31T17:08:34;92.07;;;37.03;;
7753;SDS011;3921;42.266;23.122;2022-10-31T17:11:05;113.23;;;42.80;;
7753;SDS011;3921;42.266;23.122;2022-10-31T17:13:41;107.83;;;39.23;;
7753;SDS011;3921;42.266;23.122;2022-10-31T17:16:11;49.00;;;22.40;;
7753;SDS011;3921;42.266;23.122;2022-10-31T17:18:40;74.43;;;29.80;;
7753;SDS011;3921;42.266;23.122;2022-10-31T17:21:15;76.63;;;30.10;;
7753;SDS011;3921;42.266;23.122;2022-10-31T17:23:47;43.13;;;19.60;;
7753;SDS011;3921;42.266;23.122;2022-10-31T17:26:20;42.30;;;20.83;;
7753;SDS011;3921;42.266;23.122;2022-10-31T17:28:53;42.70;;;18.47;;
7753;SDS011;3921;42.266;23.122;2022-10-31T17:31:30;46.43;;;19.63;;
7753;SDS011;3921;42.266;23.122;2022-10-31T17:34:03;41.23;;;18.60;;
7753;SDS011;3921;42.266;23.122;2022-10-31T17:36:33;40.70;;;16.53;;
7753;SDS011;3921;42.266;23.122;2022-10-31T17:39:00;31.37;;;15.70;;
7753;SDS011;3921;42.266;23.122;2022-10-31T17:41:34;39.20;;;16.43;;
7753;SDS011;3921;42.266;23.122;2022-10-31T17:44:26;34.83;;;14.77;;
7753;SDS011;3921;42.266;23.122;2022-10-31T17:46:56;19.77;;;11.07;;
7753;SDS011;3921;42.266;23.122;2022-10-31T18:01:29;59.20;;;24.90;;
7753;SDS011;3921;42.266;23.122;2022-10-31T18:04:14;88.53;;;33.43;;
7753;SDS011;3921;42.266;23.122;2022-10-31T18:06:57;111.97;;;40.63;;
7753;SDS011;3921;42.266;23.122;2022-10-31T18:09:33;79.87;;;31.20;;
7753;SDS011;3921;42.266;23.122;2022-10-31T18:12:03;64.10;;;29.33;;
7753;SDS011;3921;42.266;23.122;2022-10-31T18:14:48;54.87;;;24.47;;
7753;SDS011;3921;42.266;23.122;2022-10-31T18:17:20;29.23;;;13.03;;
7753;SDS011;3921;42.266;23.122;2022-10-31T18:20:02;31.23;;;14.27;;
7753;SDS011;3921;42.266;23.122;2022-10-31T18:22:38;105.33;;;38.90;;
7753;SDS011;3921;42.266;23.122;2022-10-31T18:25:23;81.97;;;35.47;;
7753;SDS011;3921;42.266;23.122;2022-10-31T18:28:26;51.23;;;26.73;;
7753;SDS011;3921;42.266;23.122;2022-10-31T18:31:11;36.83;;;20.63;;
7753;SDS011;3921;42.266;23.122;2022-10-31T18:33:51;41.07;;;23.23;;
7753;SDS011;3921;42.266;23.122;2022-10-31T18:36:25;34.30;;;20.70;;
7753;SDS011;3921;42.266;23.122;2022-10-31T18:39:14;26.67;;;18.23;;
7753;SDS011;3921;42.266;23.122;2022-10-31T18:41:49;28.77;;;16.97;;
7753;SDS011;3921;42.266;23.122;2022-10-31T18:44:22;23.40;;;13.63;;
7753;SDS011;3921;42.266;23.122;2022-10-31T18:47:08;18.83;;;12.70;;
7753;SDS011;3921;42.266;23.122;2022-10-31T18:49:49;21.93;;;12.67;;
7753;SDS011;3921;42.266;23.122;2022-10-31T18:52:18;19.70;;;11.43;;
7753;SDS011;3921;42.266;23.122;2022-10-31T18:55:11;21.27;;;12.73;;
7753;SDS011;3921;42.266;23.122;2022-10-31T18:57:40;24.27;;;11.70;;
7753;SDS011;3921;42.266;23.122;2022-10-31T19:03:39;23.53;;;11.67;;
7753;SDS011;3921;42.266;23.122;2022-10-31T19:06:30;23.37;;;10.90;;
7753;SDS011;3921;42.266;23.122;2022-10-31T19:09:00;26.50;;;11.30;;
7753;SDS011;3921;42.266;23.122;2022-10-31T19:11:34;19.37;;;10.70;;
7753;SDS011;3921;42.266;23.122;2022-10-31T19:14:30;22.13;;;11.07;;
7753;SDS011;3921;42.266;23.122;2022-10-31T19:17:01;17.97;;;10.27;;
7753;SDS011;3921;42.266;23.122;2022-10-31T19:19:34;24.37;;;10.40;;
7753;SDS011;3921;42.266;23.122;2022-10-31T19:22:13;17.23;;;9.90;;
7753;SDS011;3921;42.266;23.122;2022-10-31T19:33:30;16.57;;;9.90;;
7753;SDS011;3921;42.266;23.122;2022-10-31T19:42:26;15.33;;;9.40;;
7753;SDS011;3921;42.266;23.122;2022-10-31T20:08:56;24.73;;;11.67;;
7753;SDS011;3921;42.266;23.122;2022-10-31T20:11:48;18.83;;;12.00;;
7753;SDS011;3921;42.266;23.122;2022-10-31T20:14:29;19.33;;;11.27;;
7753;SDS011;3921;42.266;23.122;2022-10-31T20:19:53;21.37;;;12.63;;
7753;SDS011;3921;42.266;23.122;2022-10-31T20:22:44;22.67;;;13.03;;
7753;SDS011;3921;42.266;23.122;2022-10-31T20:28:39;22.90;;;12.87;;
7753;SDS011;3921;42.266;23.122;2022-10-31T20:31:20;21.47;;;13.10;;
7753;SDS011;3921;42.266;23.122;2022-10-31T20:33:54;24.93;;;14.90;;
7753;SDS011;3921;42.266;23.122;2022-10-31T20:36:29;24.10;;;14.60;;
7753;SDS011;3921;42.266;23.122;2022-10-31T20:39:04;22.37;;;14.57;;
7753;SDS011;3921;42.266;23.122;2022-10-31T20:41:36;24.37;;;14.23;;
7753;SDS011;3921;42.266;23.122;2022-10-31T20:59:22;26.70;;;15.07;;
7753;SDS011;3921;42.266;23.122;2022-10-31T21:01:53;19.80;;;12.00;;
7753;SDS011;3921;42.266;23.122;2022-10-31T21:04:39;21.30;;;10.17;;
7753;SDS011;3921;42.266;23.122;2022-10-31T21:07:22;16.30;;;9.17;;
7753;SDS011;3921;42.266;23.122;2022-10-31T21:09:51;18.13;;;9.47;;
7753;SDS011;3921;42.266;23.122;2022-10-31T21:19:03;14.97;;;8.13;;
7753;SDS011;3921;42.266;23.122;2022-10-31T21:21:35;17.93;;;9.27;;
7753;SDS011;3921;42.266;23.122;2022-10-31T21:24:38;18.93;;;10.37;;
7753;SDS011;3921;42.266;23.122;2022-10-31T21:30:13;23.47;;;11.40;;
7753;SDS011;3921;42.266;23.122;2022-10-31T21:33:02;20.03;;;10.73;;
7753;SDS011;3921;42.266;23.122;2022-10-31T21:36:16;24.53;;;10.30;;
7753;SDS011;3921;42.266;23.122;2022-10-31T21:39:07;19.60;;;9.63;;
7753;SDS011;3921;42.266;23.122;2022-10-31T21:47:50;21.23;;;9.60;;
7753;SDS011;3921;42.266;23.122;2022-10-31T21:56:29;15.73;;;9.10;;
7753;SDS011;3921;42.266;23.122;2022-10-31T21:59:32;15.03;;;8.37;;
7753;SDS011;3921;42.266;23.122;2022-10-31T22:02:18;13.17;;;8.27;;
7753;SDS011;3921;42.266;23.122;2022-10-31T22:06:10;13.13;;;8.03;;
7753;SDS011;3921;42.266;23.122;2022-10-31T22:08:15;11.53;;;7.13;;
7753;SDS011;3921;42.266;23.122;2022-10-31T22:16:09;11.90;;;7.60;;
7753;SDS011;3921;42.266;23.122;2022-10-31T22:18:53;16.63;;;8.53;;
7753;SDS011;3921;42.266;23.122;2022-10-31T22:21:29;13.30;;;7.43;;
7753;SDS011;3921;42.266;23.122;2022-10-31T22:24:05;11.90;;;7.50;;
7753;SDS011;3921;42.266;23.122;2022-10-31T22:26:33;13.27;;;7.57;;
7753;SDS011;3921;42.266;23.122;2022-10-31T22:29:01;16.70;;;7.17;;
7753;SDS011;3921;42.266;23.122;2022-10-31T22:31:32;11.77;;;6.93;;
7753;SDS011;3921;42.266;23.122;2022-10-31T22:34:00;10.63;;;7.37;;
7753;SDS011;3921;42.266;23.122;2022-10-31T22:36:29;19.77;;;7.37;;
7753;SDS011;3921;42.266;23.122;2022-10-31T22:38:57;13.03;;;6.93;;
7753;SDS011;3921;42.266;23.122;2022-10-31T22:41:26;12.83;;;7.23;;
7753;SDS011;3921;42.266;23.122;2022-10-31T22:43:55;12.00;;;7.67;;
7753;SDS011;3921;42.266;23.122;2022-10-31T22:46:23;11.90;;;7.43;;
7753;SDS011;3921;42.266;23.122;2022-10-31T22:48:53;10.77;;;7.50;;
7753;SDS011;3921;42.266;23.122;2022-10-31T22:51:22;12.37;;;7.37;;
7753;SDS011;3921;42.266;23.122;2022-10-31T22:53:51;14.43;;;7.67;;
7753;SDS011;3921;42.266;23.122;2022-10-31T22:56:21;12.20;;;7.20;;
7753;SDS011;3921;42.266;23.122;2022-10-31T22:58:49;12.13;;;7.00;;
7753;SDS011;3921;42.266;23.122;2022-10-31T23:01:17;13.40;;;7.40;;
7753;SDS011;3921;42.266;23.122;2022-10-31T23:03:46;15.60;;;7.93;;
7753;SDS011;3921;42.266;23.122;2022-10-31T23:06:15;14.30;;;8.30;;
7753;SDS011;3921;42.266;23.122;2022-10-31T23:08:43;17.17;;;8.30;;
7753;SDS011;3921;42.266;23.122;2022-10-31T23:11:18;14.00;;;7.37;;
7753;SDS011;3921;42.266;23.122;2022-10-31T23:13:46;11.27;;;7.33;;
7753;SDS011;3921;42.266;23.122;2022-10-31T23:16:31;14.30;;;8.00;;
7753;SDS011;3921;42.266;23.122;2022-10-31T23:18:58;17.17;;;7.57;;
7753;SDS011;3921;42.266;23.122;2022-10-31T23:21:29;10.33;;;6.70;;
7753;SDS011;3921;42.266;23.122;2022-10-31T23:24:18;11.63;;;6.43;;
7753;SDS011;3921;42.266;23.122;2022-10-31T23:26:46;12.97;;;6.80;;
7753;SDS011;3921;42.266;23.122;2022-10-31T23:29:30;11.87;;;6.40;;
7753;SDS011;3921;42.266;23.122;2022-10-31T23:31:57;10.90;;;6.37;;
7753;SDS011;3921;42.266;23.122;2022-10-31T23:34:24;10.27;;;5.97;;
7753;SDS011;3921;42.266;23.122;2022-10-31T23:36:53;14.23;;;6.70;;
7753;SDS011;3921;42.266;23.122;2022-10-31T23:39:20;12.07;;;5.47;;
7753;SDS011;3921;42.266;23.122;2022-10-31T23:41:48;9.80;;;5.93;;
7753;SDS011;3921;42.266;23.122;2022-10-31T23:44:15;11.00;;;6.83;;
7753;SDS011;3921;42.266;23.122;2022-10-31T23:46:42;12.00;;;6.50;;
7753;SDS011;3921;42.266;23.122;2022-10-31T23:49:10;10.77;;;5.80;;
7753;SDS011;3921;42.266;23.122;2022-10-31T23:51:37;11.27;;;5.53;;